createdAt,value
2022-12-19T00:01:29.299Z,102959.02
2022-12-19T00:06:43.808Z,102940.27
2022-12-19T00:11:51.841Z,102933.88
2022-12-19T00:16:58.915Z,102923.65
2022-12-19T00:22:11.052Z,102907.59
2022-12-19T00:27:18.503Z,102904.10
2022-12-19T00:32:26.756Z,102898.91
2022-12-19T00:37:33.789Z,102893.96
2022-12-19T00:42:40.849Z,102894.29
2022-12-19T00:47:49.012Z,102887.62
2022-12-19T00:52:56.315Z,102884.88
2022-12-19T00:58:03.381Z,102884.90
2022-12-19T01:03:10.464Z,102883.41
2022-12-19T01:08:20.591Z,102882.55
2022-12-19T01:13:30.939Z,102872.46
2022-12-19T01:18:38.437Z,102852.39
2022-12-19T01:23:43.895Z,102853.27
2022-12-19T01:28:51.061Z,102845.98
2022-12-19T01:34:00.161Z,102835.17
2022-12-19T01:39:08.526Z,102828.33
2022-12-19T01:44:15.640Z,102825.98
2022-12-19T01:49:31.182Z,102829.52
2022-12-19T01:54:42.233Z,102826.34
2022-12-19T01:59:55.899Z,102822.72
2022-12-19T02:05:04.684Z,102806.52
2022-12-19T02:10:12.271Z,102797.27
2022-12-19T02:15:18.515Z,102803.05
2022-12-19T02:20:53.628Z,102804.61
2022-12-19T02:26:19.883Z,102800.69
2022-12-19T02:31:30.823Z,102794.31
2022-12-19T02:36:45.395Z,102797.27
2022-12-19T02:41:59.482Z,102784.20
2022-12-19T02:47:10.070Z,102775.36
2022-12-19T02:52:47.436Z,102776.36
2022-12-19T02:58:23.355Z,102772.84
2022-12-19T03:03:37.541Z,102770.00
2022-12-19T03:08:48.694Z,102762.11
2022-12-19T03:14:02.045Z,102761.17
2022-12-19T03:19:13.240Z,102759.79
2022-12-19T03:24:21.255Z,102758.34
2022-12-19T03:29:34.225Z,102753.55
2022-12-19T03:34:46.388Z,102748.38
2022-12-19T03:40:00.188Z,102734.02
2022-12-19T03:45:10.342Z,102726.38
2022-12-19T03:50:18.739Z,102724.05
2022-12-19T03:55:32.839Z,102708.17
2022-12-19T04:00:42.816Z,102704.52
2022-12-19T04:05:51.989Z,102700.36
2022-12-19T04:11:09.110Z,102688.61
2022-12-19T04:16:24.879Z,102689.00
2022-12-19T04:21:36.634Z,102684.47
2022-12-19T04:26:46.322Z,102679.83
2022-12-19T04:31:54.231Z,102682.95
2022-12-19T04:37:02.562Z,102681.41
2022-12-19T04:42:09.899Z,102683.81
2022-12-19T04:47:17.262Z,102675.89
2022-12-19T04:52:24.359Z,102666.16
2022-12-19T04:57:33.599Z,102666.48
2022-12-19T05:02:41.476Z,102659.15
2022-12-19T05:07:48.870Z,102661.77
2022-12-19T05:12:56.344Z,102650.21
2022-12-19T05:18:01.914Z,102633.63
2022-12-19T05:23:16.789Z,102628.22
2022-12-19T05:28:24.978Z,102631.14
2022-12-19T05:33:34.580Z,102623.46
2022-12-19T05:38:41.728Z,102619.88
2022-12-19T05:43:52.936Z,102611.91
2022-12-19T05:49:00.597Z,102607.17
2022-12-19T05:54:08.244Z,102607.27
2022-12-19T05:59:13.719Z,102597.48
2022-12-19T06:04:20.881Z,102587.34
2022-12-19T06:09:28.278Z,102574.61
2022-12-19T06:14:33.806Z,102572.42
2022-12-19T06:19:41.135Z,102568.90
2022-12-19T06:24:48.409Z,102570.45
2022-12-19T06:29:55.612Z,102580.52
2022-12-19T06:35:04.802Z,102584.48
2022-12-19T06:40:34.169Z,102589.57
2022-12-19T06:45:41.314Z,102593.40
2022-12-19T06:50:48.477Z,102593.54
2022-12-19T06:55:56.620Z,102596.17
2022-12-19T07:01:04.016Z,102589.80
2022-12-19T07:06:11.585Z,102578.35
2022-12-19T07:11:18.977Z,102579.78
2022-12-19T07:16:25.299Z,102569.73
2022-12-19T07:21:35.002Z,102557.86
2022-12-19T07:26:42.583Z,102551.81
2022-12-19T07:31:52.658Z,102539.55
2022-12-19T07:36:59.908Z,102529.45
2022-12-19T07:42:07.435Z,102527.17
2022-12-19T07:47:18.646Z,102512.98
2022-12-19T07:52:25.727Z,102497.08
2022-12-19T07:57:33.094Z,102487.21
2022-12-19T08:02:40.514Z,102486.05
2022-12-19T08:07:47.795Z,102484.84
2022-12-19T08:12:55.220Z,102474.89
2022-12-19T08:18:03.737Z,102462.30
2022-12-19T08:23:18.905Z,102453.04
2022-12-19T08:28:29.269Z,102446.33
2022-12-19T08:33:43.691Z,102439.50
2022-12-19T08:45:54.351Z,102439.77
2022-12-19T08:51:04.329Z,102442.89
2022-12-19T08:56:15.606Z,102427.11
2022-12-19T09:01:24.181Z,102421.71
2022-12-19T09:06:32.935Z,102406.98
2022-12-19T09:11:47.592Z,102402.17
2022-12-19T09:16:55.840Z,102382.45
2022-12-19T09:22:06.411Z,102366.73
2022-12-19T09:27:14.109Z,102356.73
2022-12-19T09:32:22.226Z,102353.73
2022-12-19T09:37:30.281Z,102352.73
2022-12-19T09:42:48.483Z,102347.11
2022-12-19T09:47:59.594Z,102344.02
2022-12-19T09:53:14.602Z,102321.41
2022-12-19T09:58:33.227Z,102314.85
2022-12-19T10:03:45.122Z,102300.08
2022-12-19T10:10:16.562Z,102288.36
2022-12-19T10:14:38.219Z,102262.47
2022-12-19T10:20:04.644Z,102246.49
2022-12-19T10:25:27.924Z,102239.57
2022-12-19T10:30:38.104Z,102231.39
2022-12-19T10:35:49.438Z,102231.98
2022-12-19T10:41:13.460Z,102223.75
2022-12-19T10:46:26.914Z,102224.49
2022-12-19T10:51:34.879Z,102225.41
2022-12-19T10:56:42.006Z,102219.45
2022-12-19T11:02:00.223Z,102200.70
2022-12-19T11:07:21.795Z,102193.16
2022-12-19T11:15:16.184Z,102189.60
2022-12-19T11:26:19.620Z,102181.23
2022-12-19T11:31:29.375Z,102152.85
2022-12-19T11:44:43.514Z,102127.86
2022-12-19T11:50:17.550Z,102111.16
2022-12-19T11:55:27.966Z,102092.20
2022-12-19T12:00:36.675Z,102083.70
2022-12-19T12:05:48.278Z,102086.17
2022-12-19T12:16:01.756Z,102076.60
2022-12-19T12:29:02.418Z,102067.95
2022-12-19T12:32:05.781Z,102055.27
2022-12-19T12:41:20.759Z,102024.91
2022-12-19T12:46:36.284Z,102012.94
2022-12-19T12:51:44.865Z,101995.66
2022-12-19T12:56:55.456Z,101985.83
2022-12-19T13:02:16.634Z,101981.26
2022-12-19T13:07:42.554Z,101968.07
2022-12-19T13:13:09.278Z,101960.59
2022-12-19T13:18:42.945Z,101962.22
2022-12-19T13:23:50.922Z,101963.52
2022-12-19T13:28:56.463Z,101966.80
2022-12-19T13:34:20.389Z,101963.95
2022-12-19T13:40:02.344Z,101954.23
2022-12-19T13:45:08.792Z,101944.44
2022-12-19T13:50:38.112Z,101932.36
2022-12-19T13:55:45.448Z,101924.88
2022-12-19T14:00:56.573Z,101922.18
2022-12-19T14:06:22.836Z,101926.80
2022-12-19T14:12:26.733Z,101909.36
2022-12-19T14:17:10.493Z,101903.77
2022-12-19T14:22:26.465Z,101899.05
2022-12-19T14:28:20.605Z,101899.70
2022-12-19T14:33:46.019Z,101903.22
2022-12-19T14:39:20.789Z,101889.39
2022-12-19T14:52:35.692Z,101883.57
2022-12-19T14:54:05.505Z,101875.16
2022-12-19T14:56:12.547Z,101860.19
2022-12-19T15:01:08.960Z,101853.20
2022-12-19T15:07:08.388Z,101845.35
2022-12-19T15:14:49.311Z,101841.73
2022-12-19T15:17:48.140Z,101822.65
2022-12-19T15:22:55.372Z,101799.89
2022-12-19T15:28:03.234Z,101793.19
2022-12-19T15:33:13.485Z,101795.67
2022-12-19T15:38:20.887Z,101785.82
2022-12-19T15:44:01.875Z,101778.90
2022-12-19T15:48:55.147Z,101776.40
2022-12-19T15:54:38.388Z,101773.18
2022-12-19T15:59:37.770Z,101763.98
2022-12-19T16:04:45.902Z,101756.23
2022-12-19T16:09:53.232Z,101752.05
2022-12-19T16:15:02.772Z,101744.02
2022-12-19T16:20:18.831Z,101742.41
2022-12-19T16:25:33.563Z,101733.23
2022-12-19T16:30:43.584Z,101723.23
2022-12-19T16:36:07.556Z,101714.12
2022-12-19T16:41:28.309Z,101709.98
2022-12-19T16:46:35.853Z,101698.89
2022-12-19T16:51:43.487Z,101690.95
2022-12-19T16:56:52.926Z,101687.25
2022-12-19T17:02:00.938Z,101682.46
2022-12-19T17:07:13.175Z,101673.14
2022-12-19T17:12:21.591Z,101671.98
2022-12-19T17:17:28.754Z,101669.98
2022-12-19T17:22:35.910Z,101661.06
2022-12-19T17:27:43.993Z,101654.76
2022-12-19T17:32:56.323Z,101649.36
2022-12-19T17:38:06.210Z,101642.77
2022-12-19T17:43:14.757Z,101635.91
2022-12-19T17:48:28.897Z,101630.42
2022-12-19T17:53:39.754Z,101629.77
2022-12-19T17:58:48.749Z,101622.38
2022-12-19T18:03:59.246Z,101611.45
2022-12-19T18:09:10.242Z,101604.74
2022-12-19T18:14:18.928Z,101602.89
2022-12-19T18:19:30.770Z,101600.96
2022-12-19T18:24:42.000Z,101598.73
2022-12-19T18:29:50.630Z,101589.93
2022-12-19T18:34:59.511Z,101582.54
2022-12-19T18:40:19.539Z,101577.20
2022-12-19T18:45:36.152Z,101572.45
2022-12-19T18:50:51.694Z,101567.20
2022-12-19T18:56:00.328Z,101562.67
2022-12-19T19:01:15.838Z,101565.37
2022-12-19T19:06:25.959Z,101562.27
2022-12-19T19:11:34.147Z,101558.15
2022-12-19T19:16:41.798Z,101546.61
2022-12-19T19:21:50.257Z,101535.55
2022-12-19T19:26:57.455Z,101531.39
2022-12-19T19:32:04.562Z,101527.92
2022-12-19T19:37:14.965Z,101521.85
2022-12-19T19:42:22.049Z,101517.72
2022-12-19T19:47:32.410Z,101510.86
2022-12-19T19:52:40.463Z,101499.63
2022-12-19T19:57:46.159Z,101493.58
2022-12-19T20:02:53.443Z,101488.05
2022-12-19T20:08:00.685Z,101483.79
2022-12-19T20:13:07.729Z,101477.08
2022-12-19T20:18:15.323Z,101468.20
2022-12-19T20:23:22.456Z,101464.12
2022-12-19T20:28:30.135Z,101457.41
2022-12-19T20:33:37.474Z,101453.52
2022-12-19T20:38:45.119Z,101445.72
2022-12-19T20:43:53.380Z,101444.82
2022-12-19T20:49:01.423Z,101440.99
2022-12-19T20:54:13.115Z,101435.33
2022-12-19T20:59:20.853Z,101431.75
2022-12-19T21:04:29.596Z,101424.39
2022-12-19T21:09:37.318Z,101417.02
2022-12-19T21:14:44.817Z,101412.19
2022-12-19T21:19:52.339Z,101405.45
2022-12-19T21:25:00.603Z,101402.32
2022-12-19T21:30:12.301Z,101397.98
2022-12-19T21:35:19.759Z,101391.16
2022-12-19T21:40:27.207Z,101382.54
2022-12-19T21:45:34.627Z,101382.61
2022-12-19T21:50:41.917Z,101376.23
2022-12-19T21:55:49.294Z,101366.96
2022-12-19T22:01:18.683Z,101359.34
2022-12-19T22:06:33.573Z,101349.38
2022-12-19T22:11:59.937Z,101341.86
2022-12-19T22:17:08.117Z,101336.80
2022-12-19T22:22:15.342Z,101336.59
2022-12-19T22:27:22.585Z,101333.77
2022-12-19T22:32:30.914Z,101335.59
2022-12-19T22:37:38.224Z,101332.73
2022-12-19T22:42:45.580Z,101331.01
2022-12-19T22:47:52.863Z,101323.20
2022-12-19T22:53:00.477Z,101315.30
2022-12-19T22:58:08.739Z,101316.89
2022-12-19T23:03:19.273Z,101308.99
2022-12-19T23:08:26.913Z,101303.80
2022-12-19T23:13:34.185Z,101295.70
2022-12-19T23:18:42.435Z,101289.44
2022-12-19T23:23:52.064Z,101287.89
2022-12-19T23:29:01.209Z,101280.33
2022-12-19T23:34:08.495Z,101274.94
2022-12-19T23:39:15.760Z,101263.67
2022-12-19T23:44:22.977Z,101259.77
2022-12-19T23:49:30.071Z,101257.91
2022-12-19T23:54:37.405Z,101261.19
2022-12-19T23:59:44.430Z,101264.15
